LDM weather

Mason County Airport
Ludington, Michigan, United States

Public forecast

Using degrees Fahrenheit for public forecast. Weather courtesy of forecast.io.

METAR (pilot weather report)

Retrieved 2019/07/18 22:39 UTC (0 seconds ago):

KLDM 182239Z AUTO 22013G20KT 10SM CLR 24/20 A2976 RMK AO2 T02410200

TAF (pilot weather forecast)

Closest forecast is Manistee Co Blacker Airport, 19.9 nm (36.8 km) NNE. Retrieved 2019/07/18 18:21 UTC (4 hours ago):

TAF KMBL 181720Z 1818/1918 20010KT P6SM SCT050 BKN100 FM182000 22011G23KT P6SM FEW050 SCT100 FM190100 22009KT P6SM FEW050 BKN110 FM190400 21009KT P6SM VCSH BKN045 WS020/21035KT FM191200 22008KT P6SM BKN045 FM191700 22010KT P6SM SCT090